createdAt,value
2023-05-02T00:02:08.769Z,24.83
2023-05-02T00:04:38.199Z,26.40
2023-05-02T00:07:06.873Z,32.60
2023-05-02T00:09:35.638Z,35.47
2023-05-02T00:12:04.008Z,38.30
2023-05-02T00:14:31.804Z,37.27
2023-05-02T00:17:00.104Z,36.80
2023-05-02T00:19:27.989Z,38.73
2023-05-02T00:21:57.366Z,42.50
2023-05-02T00:24:25.227Z,41.93
2023-05-02T00:26:52.934Z,40.80
2023-05-02T00:29:20.902Z,39.67
2023-05-02T00:31:48.608Z,40.87
2023-05-02T00:34:16.381Z,37.17
2023-05-02T00:36:44.232Z,39.10
2023-05-02T00:39:13.404Z,39.57
2023-05-02T00:41:41.242Z,42.70
2023-05-02T00:44:09.540Z,40.10
2023-05-02T00:46:37.466Z,42.10
2023-05-02T00:49:05.617Z,41.23
2023-05-02T00:51:34.149Z,37.97
2023-05-02T00:54:02.260Z,40.17
2023-05-02T00:56:31.528Z,43.40
2023-05-02T00:58:59.498Z,41.03
2023-05-02T01:01:38.005Z,41.50
2023-05-02T01:04:19.984Z,44.63
2023-05-02T01:07:00.748Z,41.53
2023-05-02T01:09:39.211Z,43.13
2023-05-02T01:12:20.783Z,44.83
2023-05-02T01:14:54.371Z,48.80
2023-05-02T01:17:28.246Z,50.00
2023-05-02T01:20:00.351Z,46.33
2023-05-02T01:22:30.491Z,50.27
2023-05-02T01:25:06.725Z,50.80
2023-05-02T01:27:44.896Z,52.10
2023-05-02T01:30:15.957Z,47.90
2023-05-02T01:32:47.195Z,45.40
2023-05-02T01:35:17.417Z,48.93
2023-05-02T01:37:47.857Z,47.37
2023-05-02T01:40:19.470Z,47.33
2023-05-02T01:42:49.527Z,45.53
2023-05-02T01:45:20.129Z,46.30
2023-05-02T01:47:48.927Z,45.23
2023-05-02T01:50:20.229Z,46.80
2023-05-02T01:52:50.058Z,45.30
2023-05-02T01:55:19.440Z,44.23
2023-05-02T01:57:50.538Z,43.80
2023-05-02T02:00:21.465Z,39.13
2023-05-02T02:02:52.226Z,41.50
2023-05-02T02:05:21.791Z,42.37
2023-05-02T02:07:49.656Z,41.43
2023-05-02T02:10:19.163Z,44.77
2023-05-02T02:12:54.065Z,36.57
2023-05-02T02:15:32.023Z,35.93
2023-05-02T02:18:02.504Z,40.13
2023-05-02T02:20:32.191Z,45.67
2023-05-02T02:23:01.974Z,38.27
2023-05-02T02:25:30.639Z,38.77
2023-05-02T02:27:58.744Z,39.83
2023-05-02T02:30:28.039Z,37.73
2023-05-02T02:32:55.837Z,36.07
2023-05-02T02:35:24.501Z,34.30
2023-05-02T02:37:59.651Z,34.80
2023-05-02T02:40:32.652Z,32.70
2023-05-02T02:43:09.128Z,33.07
2023-05-02T02:45:43.205Z,30.53
2023-05-02T02:48:28.090Z,32.53
2023-05-02T02:51:04.747Z,35.33
2023-05-02T02:53:41.366Z,30.17
2023-05-02T02:56:17.471Z,30.00
2023-05-02T02:58:55.017Z,31.17
2023-05-02T03:01:28.170Z,28.17
2023-05-02T03:03:57.673Z,30.07
2023-05-02T03:06:27.413Z,33.17
2023-05-02T03:08:56.603Z,28.67
2023-05-02T03:11:29.814Z,29.40
2023-05-02T03:13:59.618Z,30.37
2023-05-02T03:16:36.947Z,29.80
2023-05-02T03:19:08.328Z,26.17
2023-05-02T03:21:37.905Z,28.83
2023-05-02T03:24:16.620Z,26.57
2023-05-02T03:26:47.687Z,25.07
2023-05-02T03:29:17.548Z,21.80
2023-05-02T03:31:47.149Z,25.20
2023-05-02T03:34:15.449Z,25.90
2023-05-02T03:36:46.524Z,27.03
2023-05-02T03:39:14.448Z,25.33
2023-05-02T03:41:43.959Z,23.83
2023-05-02T03:44:15.775Z,22.93
2023-05-02T03:46:43.816Z,24.10
2023-05-02T03:49:14.703Z,25.73
2023-05-02T03:51:45.432Z,22.57
2023-05-02T03:54:14.397Z,21.57
2023-05-02T03:56:44.666Z,21.27
2023-05-02T03:59:27.532Z,20.00
2023-05-02T04:01:55.445Z,19.17
2023-05-02T04:04:33.551Z,18.67
2023-05-02T04:07:02.280Z,18.27
2023-05-02T04:09:31.201Z,20.27
2023-05-02T04:12:06.147Z,19.57
2023-05-02T04:14:35.800Z,21.17
2023-05-02T04:17:04.156Z,19.20
2023-05-02T04:19:53.107Z,18.37
2023-05-02T04:22:24.984Z,19.47
2023-05-02T04:24:57.882Z,19.50
2023-05-02T04:27:26.990Z,21.20
2023-05-02T04:29:54.951Z,19.40
2023-05-02T04:32:24.853Z,19.77
2023-05-02T04:34:54.816Z,21.13
2023-05-02T04:37:24.051Z,19.23
2023-05-02T04:39:51.950Z,19.87
2023-05-02T04:42:24.307Z,18.90
2023-05-02T04:45:02.441Z,21.23
2023-05-02T04:47:31.022Z,20.47
2023-05-02T04:50:00.745Z,19.80
2023-05-02T04:52:29.780Z,26.93
2023-05-02T04:54:57.617Z,21.43
2023-05-02T04:57:27.037Z,21.63
2023-05-02T04:59:59.002Z,26.37
2023-05-02T05:02:28.005Z,27.60
2023-05-02T05:04:57.404Z,24.03
2023-05-02T05:07:26.826Z,24.40
2023-05-02T05:09:55.860Z,28.03
2023-05-02T05:12:26.203Z,26.10
2023-05-02T05:14:54.797Z,19.13
2023-05-02T05:17:24.882Z,15.77
2023-05-02T05:19:53.430Z,17.83
2023-05-02T05:22:21.911Z,20.43
2023-05-02T05:24:55.102Z,16.57
2023-05-02T05:27:27.701Z,15.37
2023-05-02T05:29:55.793Z,19.73
2023-05-02T05:32:24.244Z,18.83
2023-05-02T05:34:53.127Z,15.60
2023-05-02T05:37:23.083Z,18.50
2023-05-02T05:39:50.881Z,15.70
2023-05-02T05:42:20.130Z,12.47
2023-05-02T05:44:51.491Z,10.43
2023-05-02T05:47:23.010Z,9.97
2023-05-02T05:49:54.386Z,10.73
2023-05-02T05:52:24.026Z,11.97
2023-05-02T05:54:55.519Z,9.20
2023-05-02T05:57:27.283Z,8.33
2023-05-02T05:59:57.241Z,6.27
2023-05-02T06:02:25.645Z,6.93
2023-05-02T06:04:53.783Z,7.30
2023-05-02T06:07:24.419Z,7.10
2023-05-02T06:09:52.136Z,9.87
2023-05-02T06:12:20.069Z,6.90
2023-05-02T06:14:50.721Z,9.07
2023-05-02T06:17:18.657Z,10.17
2023-05-02T06:19:46.388Z,7.57
2023-05-02T06:22:14.179Z,7.23
2023-05-02T06:24:41.952Z,6.70
2023-05-02T06:27:09.766Z,7.43
2023-05-02T06:29:37.709Z,5.17
2023-05-02T06:32:08.129Z,7.03
2023-05-02T06:34:35.892Z,9.00
2023-05-02T06:37:03.660Z,6.53
2023-05-02T06:39:31.370Z,7.47
2023-05-02T06:41:59.558Z,7.50
2023-05-02T06:44:28.678Z,6.90
2023-05-02T06:46:56.550Z,9.80
2023-05-02T06:49:27.230Z,6.80
2023-05-02T06:51:54.986Z,11.10
2023-05-02T06:54:22.766Z,8.40
2023-05-02T06:56:50.585Z,10.47
2023-05-02T06:59:18.356Z,8.63
2023-05-02T07:01:46.052Z,12.07
2023-05-02T07:04:13.903Z,9.43
2023-05-02T07:06:43.142Z,9.53
2023-05-02T07:09:11.013Z,6.63
2023-05-02T07:14:06.479Z,9.43
2023-05-02T07:16:34.527Z,7.60
2023-05-02T07:19:04.672Z,7.90
2023-05-02T07:21:32.501Z,7.63
2023-05-02T07:24:02.250Z,5.90
2023-05-02T07:26:30.015Z,4.07
2023-05-02T07:28:57.901Z,4.83
2023-05-02T07:31:25.801Z,4.33
2023-05-02T07:33:53.608Z,5.63
2023-05-02T07:36:21.318Z,4.60
2023-05-02T07:38:49.044Z,6.60
2023-05-02T07:41:18.284Z,6.93
2023-05-02T07:43:46.263Z,6.57
2023-05-02T07:46:14.012Z,6.37
2023-05-02T07:48:42.727Z,6.70
2023-05-02T07:51:11.835Z,5.63
2023-05-02T07:53:39.678Z,6.00
2023-05-02T07:56:08.876Z,6.43
2023-05-02T07:58:38.396Z,5.47
2023-05-02T08:01:06.356Z,5.10
2023-05-02T08:03:34.439Z,4.07
2023-05-02T08:06:04.147Z,6.57
2023-05-02T08:08:32.013Z,8.67
2023-05-02T08:10:59.871Z,7.63
2023-05-02T08:13:28.582Z,4.93
2023-05-02T08:15:58.572Z,7.57
2023-05-02T08:18:26.388Z,6.73
2023-05-02T08:20:54.228Z,9.63
2023-05-02T08:23:22.166Z,7.53
2023-05-02T08:25:49.906Z,6.47
2023-05-02T08:28:18.596Z,4.70
2023-05-02T08:30:46.492Z,5.00
2023-05-02T08:33:16.015Z,4.17
2023-05-02T08:35:44.064Z,5.50
2023-05-02T08:38:11.833Z,4.57
2023-05-02T08:40:42.647Z,4.47
2023-05-02T08:43:13.063Z,8.20
2023-05-02T08:45:42.228Z,4.23
2023-05-02T08:48:12.739Z,7.33
2023-05-02T08:50:44.512Z,4.10
2023-05-02T08:56:15.589Z,6.87
2023-05-02T08:58:43.262Z,6.63
2023-05-02T09:01:14.100Z,6.27
2023-05-02T09:03:43.887Z,8.60
2023-05-02T09:06:16.441Z,5.70
2023-05-02T09:08:45.778Z,8.77
2023-05-02T09:11:14.333Z,10.83
2023-05-02T09:13:43.257Z,8.40
2023-05-02T09:16:12.366Z,7.37
2023-05-02T09:18:41.676Z,3.90
2023-05-02T09:21:12.337Z,7.40
2023-05-02T09:23:43.134Z,7.57
2023-05-02T09:26:15.941Z,5.20
2023-05-02T09:28:45.560Z,7.37
2023-05-02T09:31:18.756Z,7.80
2023-05-02T09:33:51.006Z,6.83
2023-05-02T09:36:22.452Z,7.00
2023-05-02T09:38:51.971Z,6.27
2023-05-02T09:41:21.001Z,8.87
2023-05-02T09:43:57.222Z,6.47
2023-05-02T09:46:25.277Z,6.13
2023-05-02T09:48:56.134Z,6.03
2023-05-02T09:51:25.587Z,8.13
2023-05-02T09:53:55.991Z,5.63
2023-05-02T09:56:24.813Z,9.73
2023-05-02T09:59:12.846Z,7.67
2023-05-02T10:01:42.556Z,7.67
2023-05-02T10:04:16.275Z,8.00
2023-05-02T10:06:45.213Z,11.10
2023-05-02T10:09:19.789Z,5.50
2023-05-02T10:11:53.997Z,6.37
2023-05-02T10:14:23.377Z,8.67
2023-05-02T10:16:59.189Z,9.53
2023-05-02T10:19:31.424Z,7.70
2023-05-02T10:22:00.110Z,10.13
2023-05-02T10:24:29.792Z,8.33
2023-05-02T10:26:57.945Z,10.33
2023-05-02T10:29:28.577Z,9.83
2023-05-02T10:31:58.998Z,10.97
2023-05-02T10:34:29.055Z,13.50
2023-05-02T10:37:01.202Z,7.43
2023-05-02T10:39:33.133Z,8.00
2023-05-02T10:42:03.487Z,8.73
2023-05-02T10:44:35.223Z,10.47
2023-05-02T10:47:03.355Z,11.27
2023-05-02T10:49:31.220Z,8.97
2023-05-02T10:51:58.974Z,8.90
2023-05-02T10:54:27.175Z,8.57
2023-05-02T10:57:09.273Z,9.20
2023-05-02T10:59:38.637Z,6.80
2023-05-02T11:02:28.165Z,10.50
2023-05-02T11:05:04.594Z,10.77
2023-05-02T11:07:33.614Z,8.33
2023-05-02T11:10:27.782Z,10.40
2023-05-02T11:13:01.080Z,7.10
2023-05-02T11:16:00.230Z,11.87
2023-05-02T11:18:27.994Z,9.60
2023-05-02T11:21:29.946Z,7.60
2023-05-02T11:24:35.247Z,9.20
2023-05-02T11:27:40.956Z,7.87
2023-05-02T11:30:12.799Z,8.57
2023-05-02T11:33:19.850Z,7.83
2023-05-02T11:35:49.351Z,8.67
2023-05-02T11:38:22.636Z,6.87
2023-05-02T11:40:52.254Z,6.23
2023-05-02T11:43:22.332Z,6.33
2023-05-02T11:45:51.822Z,13.37
2023-05-02T11:48:22.656Z,6.40
2023-05-02T11:50:52.506Z,9.23
2023-05-02T11:53:23.474Z,8.53
2023-05-02T11:55:52.745Z,8.80
2023-05-02T11:58:23.995Z,12.67
2023-05-02T12:00:54.383Z,11.33
2023-05-02T12:03:23.903Z,8.47
2023-05-02T12:05:52.295Z,5.83
2023-05-02T12:08:21.883Z,10.20
2023-05-02T12:10:51.896Z,8.27
2023-05-02T12:13:20.654Z,17.90
2023-05-02T12:15:49.717Z,5.50
2023-05-02T12:18:22.085Z,4.97
2023-05-02T12:20:51.227Z,7.50
2023-05-02T12:23:19.557Z,5.67
2023-05-02T12:25:48.198Z,6.67
2023-05-02T12:28:18.919Z,9.23
2023-05-02T12:30:49.010Z,5.80
2023-05-02T12:33:18.883Z,7.63
2023-05-02T12:35:48.027Z,5.50
2023-05-02T12:38:17.182Z,7.17
2023-05-02T12:40:50.428Z,4.83
2023-05-02T12:43:18.352Z,7.00
2023-05-02T12:45:48.270Z,6.10
2023-05-02T12:48:22.491Z,5.20
2023-05-02T12:50:51.085Z,5.97
2023-05-02T12:53:18.958Z,4.27
2023-05-02T12:55:46.928Z,9.70
2023-05-02T12:58:14.704Z,8.20
2023-05-02T13:00:45.654Z,11.50
2023-05-02T13:03:15.045Z,12.10
2023-05-02T13:05:45.021Z,7.20
2023-05-02T13:08:13.098Z,5.77
2023-05-02T13:10:40.834Z,7.37
2023-05-02T13:13:08.536Z,7.67
2023-05-02T13:15:36.238Z,7.73
2023-05-02T13:18:04.372Z,8.87
2023-05-02T13:20:32.398Z,6.20
2023-05-02T13:23:01.440Z,7.90
2023-05-02T13:25:29.419Z,7.70
2023-05-02T13:27:57.139Z,6.47
2023-05-02T13:30:25.350Z,9.70
2023-05-02T13:32:53.316Z,13.33
2023-05-02T13:35:21.517Z,8.53
2023-05-02T13:37:49.219Z,8.83
2023-05-02T13:40:18.537Z,7.07
2023-05-02T13:42:46.446Z,6.83
2023-05-02T13:45:14.736Z,9.53
2023-05-02T13:47:42.602Z,5.37
2023-05-02T13:50:10.631Z,10.57
2023-05-02T13:52:38.701Z,7.47
2023-05-02T13:55:07.338Z,11.23
2023-05-02T13:57:36.488Z,7.97
2023-05-02T14:00:05.747Z,6.23
2023-05-02T14:02:33.830Z,8.23
2023-05-02T14:05:01.624Z,6.33
2023-05-02T14:07:29.659Z,9.53
2023-05-02T14:09:57.692Z,7.90
2023-05-02T14:12:25.724Z,9.17
2023-05-02T14:14:54.913Z,8.63
2023-05-02T14:17:25.058Z,8.23
2023-05-02T14:19:52.824Z,7.20
2023-05-02T14:22:21.117Z,7.03
2023-05-02T14:24:48.966Z,10.83
2023-05-02T14:27:19.063Z,10.17
2023-05-02T14:29:47.519Z,7.77
2023-05-02T14:32:17.258Z,7.50
2023-05-02T14:34:45.265Z,7.83
2023-05-02T14:37:13.154Z,8.07
2023-05-02T14:39:42.510Z,9.60
2023-05-02T14:42:10.356Z,9.10
2023-05-02T14:44:38.034Z,8.47
2023-05-02T14:47:05.904Z,10.07
2023-05-02T14:49:35.221Z,9.60
2023-05-02T14:52:03.316Z,14.40
2023-05-02T14:54:31.503Z,9.57
2023-05-02T14:56:59.896Z,10.53
2023-05-02T14:59:29.899Z,7.27
2023-05-02T15:01:58.261Z,10.73
2023-05-02T15:04:27.784Z,7.93
2023-05-02T15:06:58.332Z,9.90
2023-05-02T15:09:27.174Z,9.20
2023-05-02T15:11:54.924Z,12.23
2023-05-02T15:14:22.838Z,10.60
2023-05-02T15:16:50.864Z,9.67
2023-05-02T15:19:18.640Z,10.13
2023-05-02T15:21:46.388Z,10.23
2023-05-02T15:24:15.653Z,8.07
2023-05-02T15:26:43.373Z,10.23
2023-05-02T15:29:11.340Z,10.00
2023-05-02T15:31:39.200Z,8.37
2023-05-02T15:34:07.267Z,11.93
2023-05-02T15:36:37.315Z,9.10
2023-05-02T15:39:05.418Z,12.33
2023-05-02T15:41:34.854Z,8.53
2023-05-02T15:44:02.826Z,8.67
2023-05-02T15:46:30.657Z,9.57
2023-05-02T15:48:58.607Z,8.20
2023-05-02T15:51:26.890Z,9.10
2023-05-02T15:53:55.526Z,9.87
2023-05-02T15:56:23.397Z,6.03
2023-05-02T15:58:52.608Z,9.30
2023-05-02T16:01:24.120Z,9.87
2023-05-02T16:03:52.583Z,7.47
2023-05-02T16:06:20.483Z,9.50
2023-05-02T16:08:48.248Z,8.93
2023-05-02T16:11:16.093Z,10.23
2023-05-02T16:13:43.903Z,9.57
2023-05-02T16:16:13.251Z,12.57
2023-05-02T16:18:41.145Z,11.27
2023-05-02T16:21:09.076Z,8.63
2023-05-02T16:23:36.813Z,9.20
2023-05-02T16:26:04.714Z,8.50
2023-05-02T16:28:32.444Z,8.93
2023-05-02T16:31:00.319Z,9.00
2023-05-02T16:33:29.945Z,10.00
2023-05-02T16:36:04.544Z,9.20
2023-05-02T16:38:32.730Z,7.07
2023-05-02T16:41:04.395Z,12.40
2023-05-02T16:43:32.152Z,8.37
2023-05-02T16:46:01.500Z,9.77
2023-05-02T16:48:30.734Z,8.53
2023-05-02T16:50:58.724Z,7.07
2023-05-02T16:53:26.885Z,8.60
2023-05-02T16:55:54.761Z,6.10
2023-05-02T16:58:24.719Z,8.63
2023-05-02T17:00:52.613Z,6.40
2023-05-02T17:03:20.469Z,7.83
2023-05-02T17:05:49.701Z,8.33
2023-05-02T17:08:17.878Z,7.40
2023-05-02T17:10:49.666Z,7.90
2023-05-02T17:13:17.341Z,10.10
2023-05-02T17:15:45.139Z,13.83
2023-05-02T17:18:13.144Z,7.87
2023-05-02T17:20:41.492Z,9.13
2023-05-02T17:23:11.033Z,8.80
2023-05-02T17:25:39.453Z,7.07
2023-05-02T17:28:07.733Z,10.90
2023-05-02T17:30:35.640Z,8.73
2023-05-02T17:33:03.986Z,8.30
2023-05-02T17:35:32.898Z,9.03
2023-05-02T17:38:00.736Z,10.83
2023-05-02T17:40:31.675Z,9.13
2023-05-02T17:42:59.470Z,9.63
2023-05-02T17:45:28.986Z,6.20
2023-05-02T17:47:56.890Z,11.47
2023-05-02T17:50:24.699Z,8.80
2023-05-02T17:52:53.006Z,8.47
2023-05-02T17:55:21.255Z,10.07
2023-05-02T17:57:50.514Z,9.87
2023-05-02T18:00:18.770Z,8.20
2023-05-02T18:02:47.445Z,9.63
2023-05-02T18:05:15.285Z,8.80
2023-05-02T18:07:43.086Z,9.20
2023-05-02T18:10:11.456Z,9.90
2023-05-02T18:12:39.296Z,8.70
2023-05-02T18:15:09.546Z,7.87
2023-05-02T18:17:38.196Z,8.50
2023-05-02T18:20:07.222Z,6.87
2023-05-02T18:22:35.732Z,9.63
2023-05-02T18:25:03.880Z,7.40
2023-05-02T18:27:32.495Z,5.87
2023-05-02T18:30:00.724Z,7.10
2023-05-02T18:32:31.476Z,9.63
2023-05-02T18:34:59.680Z,8.60
2023-05-02T18:37:31.560Z,7.27
2023-05-02T18:39:59.567Z,8.13
2023-05-02T18:42:27.500Z,7.20
2023-05-02T18:45:13.418Z,5.87
2023-05-02T18:47:43.076Z,5.93
2023-05-02T18:50:11.179Z,10.23
2023-05-02T18:52:39.182Z,10.70
2023-05-02T18:55:07.891Z,8.43
2023-05-02T18:57:35.921Z,6.77
2023-05-02T19:00:06.179Z,8.47
2023-05-02T19:02:34.888Z,6.67
2023-05-02T19:05:06.701Z,6.37
2023-05-02T19:07:36.301Z,7.83
2023-05-02T19:10:06.831Z,6.17
2023-05-02T19:12:39.559Z,8.63
2023-05-02T19:15:09.626Z,9.27
2023-05-02T19:17:37.724Z,8.77
2023-05-02T19:20:08.810Z,8.27
2023-05-02T19:22:37.400Z,7.03
2023-05-02T19:25:09.551Z,7.20
2023-05-02T19:27:37.746Z,8.00
2023-05-02T19:30:09.155Z,6.90
2023-05-02T19:32:37.854Z,3.73
2023-05-02T19:35:09.088Z,7.20
2023-05-02T19:37:36.869Z,7.87
2023-05-02T19:40:05.140Z,7.43
2023-05-02T19:42:33.425Z,6.67
2023-05-02T19:45:01.519Z,6.43
2023-05-02T19:47:30.092Z,10.00
2023-05-02T19:49:57.871Z,6.53
2023-05-02T19:52:27.605Z,9.60
2023-05-02T19:54:55.580Z,6.17
2023-05-02T19:57:23.488Z,6.53
2023-05-02T19:59:51.886Z,12.37
2023-05-02T20:02:19.841Z,8.07
2023-05-02T20:04:47.833Z,7.03
2023-05-02T20:07:15.632Z,11.70
2023-05-02T20:09:45.315Z,6.03
2023-05-02T20:12:13.523Z,8.80
2023-05-02T20:14:41.800Z,9.77
2023-05-02T20:17:09.646Z,7.90
2023-05-02T20:19:37.430Z,6.57
2023-05-02T20:22:05.378Z,8.90
2023-05-02T20:24:33.145Z,7.33
2023-05-02T20:27:02.637Z,9.07
2023-05-02T20:29:30.591Z,8.53
2023-05-02T20:31:59.358Z,6.37
2023-05-02T20:34:27.313Z,7.70
2023-05-02T20:36:55.566Z,17.00
2023-05-02T20:39:24.583Z,10.70
2023-05-02T20:41:52.770Z,6.30
2023-05-02T20:44:22.531Z,8.17
2023-05-02T20:46:51.375Z,8.97
2023-05-02T20:49:19.366Z,7.87
2023-05-02T20:51:47.172Z,6.30
2023-05-02T20:54:14.952Z,9.60
2023-05-02T20:56:42.789Z,6.83
2023-05-02T20:59:11.523Z,8.57
2023-05-02T21:01:41.153Z,7.10
2023-05-02T21:04:09.135Z,5.33
2023-05-02T21:06:37.403Z,5.53
2023-05-02T21:09:05.365Z,4.50
2023-05-02T21:11:33.240Z,7.37
2023-05-02T21:14:02.452Z,6.00
2023-05-02T21:16:30.250Z,6.20
2023-05-02T21:18:59.589Z,4.67
2023-05-02T21:21:27.535Z,6.63
2023-05-02T21:23:55.508Z,7.27
2023-05-02T21:26:23.445Z,6.27
2023-05-02T21:28:51.347Z,5.23
2023-05-02T21:31:19.280Z,5.20
2023-05-02T21:33:47.077Z,7.87
2023-05-02T21:36:18.877Z,7.33
2023-05-02T21:38:47.354Z,6.33
2023-05-02T21:41:15.188Z,6.73
2023-05-02T21:43:43.069Z,7.47
2023-05-02T21:46:12.677Z,4.50
2023-05-02T21:48:52.209Z,6.03
2023-05-02T21:51:21.404Z,8.57
2023-05-02T21:53:49.286Z,7.07
2023-05-02T21:56:17.039Z,6.77
2023-05-02T21:58:47.825Z,6.83
2023-05-02T22:01:16.175Z,6.70
2023-05-02T22:03:44.256Z,5.30
2023-05-02T22:06:13.521Z,6.77
2023-05-02T22:08:45.011Z,6.50
2023-05-02T22:11:12.873Z,5.27
2023-05-02T22:13:41.161Z,9.97
2023-05-02T22:16:09.089Z,9.23
2023-05-02T22:18:36.964Z,8.53
2023-05-02T22:21:04.942Z,6.00
2023-05-02T22:23:49.979Z,6.30
2023-05-02T22:26:19.667Z,5.80
2023-05-02T22:28:47.391Z,5.40
2023-05-02T22:31:15.241Z,7.27
2023-05-02T22:33:43.131Z,9.13
2023-05-02T22:36:11.127Z,5.53
2023-05-02T22:38:39.664Z,7.77
2023-05-02T22:41:07.780Z,7.37
2023-05-02T22:43:37.363Z,4.80
2023-05-02T22:46:06.271Z,8.30
2023-05-02T22:48:34.217Z,5.67
2023-05-02T22:51:02.152Z,8.00
2023-05-02T22:53:30.171Z,7.00
2023-05-02T22:55:57.913Z,6.40
2023-05-02T22:58:25.682Z,6.57
2023-05-02T23:00:54.997Z,6.23
2023-05-02T23:03:23.003Z,5.60
2023-05-02T23:05:51.045Z,5.97
2023-05-02T23:08:18.854Z,7.30
2023-05-02T23:10:46.873Z,10.00
2023-05-02T23:13:14.693Z,11.83
2023-05-02T23:15:43.377Z,6.40
2023-05-02T23:18:12.943Z,6.90
2023-05-02T23:20:40.999Z,5.40
2023-05-02T23:23:08.881Z,7.80
2023-05-02T23:25:37.587Z,5.53
2023-05-02T23:28:05.632Z,8.53
2023-05-02T23:30:50.901Z,7.77
2023-05-02T23:33:31.663Z,6.50
2023-05-02T23:36:01.680Z,8.07
2023-05-02T23:38:29.844Z,6.57
2023-05-02T23:40:57.775Z,4.30
2023-05-02T23:43:25.836Z,7.67
2023-05-02T23:45:53.599Z,8.13
2023-05-02T23:48:34.613Z,9.37
2023-05-02T23:51:19.911Z,6.37
2023-05-02T23:53:52.614Z,7.43
2023-05-02T23:56:20.992Z,6.70
2023-05-02T23:58:48.798Z,7.87
